Current METAR

KOGD 221653Z 24005KT 10SM BKN095 12/04 A3014 RMK AO2 RAE1555 SLP186 P0000 T01170044